sensor_id;sensor_type;location;lat;lon;timestamp;temperature;humidity
9265;DHT22;4669;49.594;10.958;2023-10-13T04:27:35;15.80;99.90
9265;DHT22;4669;49.594;10.958;2023-10-13T04:32:53;15.90;99.90
9265;DHT22;4669;49.594;10.958;2023-10-13T04:38:09;15.80;99.90
9265;DHT22;4669;49.594;10.958;2023-10-13T04:43:21;15.80;99.90
9265;DHT22;4669;49.594;10.958;2023-10-13T04:48:37;15.70;99.90
9265;DHT22;4669;49.594;10.958;2023-10-13T04:53:40;15.70;99.90
9265;DHT22;4669;49.594;10.958;2023-10-13T04:59:02;15.70;99.90
9265;DHT22;4669;49.594;10.958;2023-10-13T05:04:36;15.70;99.90
9265;DHT22;4669;49.594;10.958;2023-10-13T05:10:00;15.80;99.90
9265;DHT22;4669;49.594;10.958;2023-10-13T05:15:21;15.80;99.90
9265;DHT22;4669;49.594;10.958;2023-10-13T05:20:55;15.90;99.90
9265;DHT22;4669;49.594;10.958;2023-10-13T05:26:14;15.80;99.90
9265;DHT22;4669;49.594;10.958;2023-10-13T05:31:35;15.80;99.90
9265;DHT22;4669;49.594;10.958;2023-10-13T05:36:54;15.80;99.90
9265;DHT22;4669;49.594;10.958;2023-10-13T05:42:13;15.80;99.90
9265;DHT22;4669;49.594;10.958;2023-10-13T05:47:30;15.80;99.90
9265;DHT22;4669;49.594;10.958;2023-10-13T05:52:51;15.80;99.90
9265;DHT22;4669;49.594;10.958;2023-10-13T05:58:10;15.80;99.90
9265;DHT22;4669;49.594;10.958;2023-10-13T06:03:31;15.90;99.90
9265;DHT22;4669;49.594;10.958;2023-10-13T06:08:51;15.90;99.90
9265;DHT22;4669;49.594;10.958;2023-10-13T06:14:10;15.90;99.90
9265;DHT22;4669;49.594;10.958;2023-10-13T06:19:31;15.90;99.90
9265;DHT22;4669;49.594;10.958;2023-10-13T06:24:49;15.90;99.90
9265;DHT22;4669;49.594;10.958;2023-10-13T06:30:10;16.00;99.90
9265;DHT22;4669;49.594;10.958;2023-10-13T06:35:14;15.90;99.90
9265;DHT22;4669;49.594;10.958;2023-10-13T06:40:23;16.00;99.90
9265;DHT22;4669;49.594;10.958;2023-10-13T06:45:36;16.00;99.90
9265;DHT22;4669;49.594;10.958;2023-10-13T06:50:39;15.90;99.90
9265;DHT22;4669;49.594;10.958;2023-10-13T06:55:42;15.90;99.90
9265;DHT22;4669;49.594;10.958;2023-10-13T07:00:47;15.90;99.90
9265;DHT22;4669;49.594;10.958;2023-10-13T07:05:56;15.80;99.90
9265;DHT22;4669;49.594;10.958;2023-10-13T07:11:00;15.80;99.90
9265;DHT22;4669;49.594;10.958;2023-10-13T07:16:06;15.90;99.90
9265;DHT22;4669;49.594;10.958;2023-10-13T07:21:14;15.90;99.90
9265;DHT22;4669;49.594;10.958;2023-10-13T07:26:16;16.00;99.90
9265;DHT22;4669;49.594;10.958;2023-10-13T07:31:17;16.10;99.90
9265;DHT22;4669;49.594;10.958;2023-10-13T07:36:22;16.10;99.90
9265;DHT22;4669;49.594;10.958;2023-10-13T07:41:28;16.20;99.90
9265;DHT22;4669;49.594;10.958;2023-10-13T07:46:32;16.30;99.90
9265;DHT22;4669;49.594;10.958;2023-10-13T07:51:37;16.40;99.90
9265;DHT22;4669;49.594;10.958;2023-10-13T07:56:44;16.50;99.90
9265;DHT22;4669;49.594;10.958;2023-10-13T08:01:46;16.50;99.90
9265;DHT22;4669;49.594;10.958;2023-10-13T08:06:53;16.50;99.90
9265;DHT22;4669;49.594;10.958;2023-10-13T08:12:03;16.50;99.90
9265;DHT22;4669;49.594;10.958;2023-10-13T08:17:11;16.50;99.90
9265;DHT22;4669;49.594;10.958;2023-10-13T08:22:14;16.60;99.90
9265;DHT22;4669;49.594;10.958;2023-10-13T08:27:25;16.60;99.90
9265;DHT22;4669;49.594;10.958;2023-10-13T08:32:48;16.70;99.90
9265;DHT22;4669;49.594;10.958;2023-10-13T08:37:58;16.70;99.90
9265;DHT22;4669;49.594;10.958;2023-10-13T08:43:14;16.80;99.90
9265;DHT22;4669;49.594;10.958;2023-10-13T08:48:18;16.90;99.90
9265;DHT22;4669;49.594;10.958;2023-10-13T08:53:29;17.00;99.90
9265;DHT22;4669;49.594;10.958;2023-10-13T08:58:34;17.10;99.90
9265;DHT22;4669;49.594;10.958;2023-10-13T09:03:55;17.20;99.90
9265;DHT22;4669;49.594;10.958;2023-10-13T09:09:19;17.40;99.90
9265;DHT22;4669;49.594;10.958;2023-10-13T09:14:36;17.50;99.90
9265;DHT22;4669;49.594;10.958;2023-10-13T09:19:49;17.60;99.90
9265;DHT22;4669;49.594;10.958;2023-10-13T09:24:58;17.70;99.90
9265;DHT22;4669;49.594;10.958;2023-10-13T09:30:01;17.80;99.90
9265;DHT22;4669;49.594;10.958;2023-10-13T09:35:11;17.80;99.90
9265;DHT22;4669;49.594;10.958;2023-10-13T09:40:19;17.90;99.90
9265;DHT22;4669;49.594;10.958;2023-10-13T09:45:31;18.00;99.90
9265;DHT22;4669;49.594;10.958;2023-10-13T09:50:37;18.20;99.90
9265;DHT22;4669;49.594;10.958;2023-10-13T09:55:48;18.40;99.90
9265;DHT22;4669;49.594;10.958;2023-10-13T10:00:54;18.50;99.90
9265;DHT22;4669;49.594;10.958;2023-10-13T10:06:02;18.90;99.90
9265;DHT22;4669;49.594;10.958;2023-10-13T10:11:42;19.00;99.90
9265;DHT22;4669;49.594;10.958;2023-10-13T10:16:59;19.20;99.90
9265;DHT22;4669;49.594;10.958;2023-10-13T10:22:07;19.30;99.90
9265;DHT22;4669;49.594;10.958;2023-10-13T10:27:25;19.40;99.90
9265;DHT22;4669;49.594;10.958;2023-10-13T10:32:34;19.50;99.90
9265;DHT22;4669;49.594;10.958;2023-10-13T10:37:37;19.60;99.90
9265;DHT22;4669;49.594;10.958;2023-10-13T10:42:50;19.80;99.90
9265;DHT22;4669;49.594;10.958;2023-10-13T10:47:53;19.90;99.90
9265;DHT22;4669;49.594;10.958;2023-10-13T10:52:59;19.90;99.70
9265;DHT22;4669;49.594;10.958;2023-10-13T10:58:02;20.00;99.40
9265;DHT22;4669;49.594;10.958;2023-10-13T11:03:07;20.20;99.00
9265;DHT22;4669;49.594;10.958;2023-10-13T11:08:21;20.30;99.60
9265;DHT22;4669;49.594;10.958;2023-10-13T11:13:41;20.40;98.00
9265;DHT22;4669;49.594;10.958;2023-10-13T11:19:00;20.90;96.20
9265;DHT22;4669;49.594;10.958;2023-10-13T11:24:02;20.90;95.80
9265;DHT22;4669;49.594;10.958;2023-10-13T11:29:10;21.00;96.10
9265;DHT22;4669;49.594;10.958;2023-10-13T11:34:12;21.00;96.80
9265;DHT22;4669;49.594;10.958;2023-10-13T11:39:17;21.10;96.10
9265;DHT22;4669;49.594;10.958;2023-10-13T11:44:25;21.10;96.10
9265;DHT22;4669;49.594;10.958;2023-10-13T11:49:32;21.20;95.50
9265;DHT22;4669;49.594;10.958;2023-10-13T11:54:37;21.40;95.00
9265;DHT22;4669;49.594;10.958;2023-10-13T11:59:43;21.40;95.10
9265;DHT22;4669;49.594;10.958;2023-10-13T12:04:56;21.50;95.00
9265;DHT22;4669;49.594;10.958;2023-10-13T12:10:00;21.40;95.30
9265;DHT22;4669;49.594;10.958;2023-10-13T12:15:08;21.40;95.80
9265;DHT22;4669;49.594;10.958;2023-10-13T12:20:15;21.50;95.70
9265;DHT22;4669;49.594;10.958;2023-10-13T12:25:36;21.80;94.20
9265;DHT22;4669;49.594;10.958;2023-10-13T12:31:02;22.00;94.80
9265;DHT22;4669;49.594;10.958;2023-10-13T12:36:07;22.00;94.80
9265;DHT22;4669;49.594;10.958;2023-10-13T12:41:15;22.10;94.50
9265;DHT22;4669;49.594;10.958;2023-10-13T12:46:33;22.30;94.20
9265;DHT22;4669;49.594;10.958;2023-10-13T12:51:52;22.40;93.70
9265;DHT22;4669;49.594;10.958;2023-10-13T12:56:54;22.60;92.70
9265;DHT22;4669;49.594;10.958;2023-10-13T13:01:59;22.90;92.50
9265;DHT22;4669;49.594;10.958;2023-10-13T13:07:07;22.80;92.80
9265;DHT22;4669;49.594;10.958;2023-10-13T13:12:13;22.90;93.00
9265;DHT22;4669;49.594;10.958;2023-10-13T13:17:17;22.90;93.60
9265;DHT22;4669;49.594;10.958;2023-10-13T13:22:19;23.00;93.30
9265;DHT22;4669;49.594;10.958;2023-10-13T13:27:22;23.20;92.80
9265;DHT22;4669;49.594;10.958;2023-10-13T13:32:26;23.20;93.00
9265;DHT22;4669;49.594;10.958;2023-10-13T13:37:29;23.40;92.30
9265;DHT22;4669;49.594;10.958;2023-10-13T13:42:31;23.40;92.40
9265;DHT22;4669;49.594;10.958;2023-10-13T13:47:38;23.60;91.80
9265;DHT22;4669;49.594;10.958;2023-10-13T13:52:40;23.60;91.50
9265;DHT22;4669;49.594;10.958;2023-10-13T13:57:46;23.70;91.60
9265;DHT22;4669;49.594;10.958;2023-10-13T14:02:52;23.80;91.10
9265;DHT22;4669;49.594;10.958;2023-10-13T14:07:54;23.80;91.10
9265;DHT22;4669;49.594;10.958;2023-10-13T14:12:57;23.80;91.30
9265;DHT22;4669;49.594;10.958;2023-10-13T14:18:08;23.80;91.40
9265;DHT22;4669;49.594;10.958;2023-10-13T14:23:15;23.70;90.60
9265;DHT22;4669;49.594;10.958;2023-10-13T14:28:17;23.40;91.50
9265;DHT22;4669;49.594;10.958;2023-10-13T14:33:20;23.10;91.60
9265;DHT22;4669;49.594;10.958;2023-10-13T14:38:26;22.90;91.80
9265;DHT22;4669;49.594;10.958;2023-10-13T14:43:28;22.70;92.00
9265;DHT22;4669;49.594;10.958;2023-10-13T14:48:31;22.50;92.40
9265;DHT22;4669;49.594;10.958;2023-10-13T14:53:33;22.30;92.70
9265;DHT22;4669;49.594;10.958;2023-10-13T14:58:35;22.10;93.20
9265;DHT22;4669;49.594;10.958;2023-10-13T15:03:44;21.90;93.00
9265;DHT22;4669;49.594;10.958;2023-10-13T15:08:47;21.80;93.30
9265;DHT22;4669;49.594;10.958;2023-10-13T15:13:49;21.80;93.40
9265;DHT22;4669;49.594;10.958;2023-10-13T15:18:54;21.70;93.40
9265;DHT22;4669;49.594;10.958;2023-10-13T15:23:57;21.80;93.20
9265;DHT22;4669;49.594;10.958;2023-10-13T15:29:02;21.80;93.10
9265;DHT22;4669;49.594;10.958;2023-10-13T15:34:12;21.80;93.10
9265;DHT22;4669;49.594;10.958;2023-10-13T15:39:14;21.70;93.00
9265;DHT22;4669;49.594;10.958;2023-10-13T15:44:16;21.70;93.30
9265;DHT22;4669;49.594;10.958;2023-10-13T15:49:22;21.60;93.10
9265;DHT22;4669;49.594;10.958;2023-10-13T15:54:24;21.60;93.10
9265;DHT22;4669;49.594;10.958;2023-10-13T15:59:26;21.50;93.20
9265;DHT22;4669;49.594;10.958;2023-10-13T16:04:29;21.50;93.20
9265;DHT22;4669;49.594;10.958;2023-10-13T16:09:31;21.40;93.10
9265;DHT22;4669;49.594;10.958;2023-10-13T16:14:34;21.40;93.10
9265;DHT22;4669;49.594;10.958;2023-10-13T16:19:37;21.40;93.00
9265;DHT22;4669;49.594;10.958;2023-10-13T16:24:40;21.30;92.90
9265;DHT22;4669;49.594;10.958;2023-10-13T16:29:42;21.30;93.10
9265;DHT22;4669;49.594;10.958;2023-10-13T16:34:45;21.20;93.10
9265;DHT22;4669;49.594;10.958;2023-10-13T16:39:49;21.20;93.00
9265;DHT22;4669;49.594;10.958;2023-10-13T16:44:50;21.20;93.00
9265;DHT22;4669;49.594;10.958;2023-10-13T16:49:54;21.10;93.10
9265;DHT22;4669;49.594;10.958;2023-10-13T16:54:55;21.00;93.10
9265;DHT22;4669;49.594;10.958;2023-10-13T16:59:57;21.00;93.20
9265;DHT22;4669;49.594;10.958;2023-10-13T17:05:02;20.90;93.10
9265;DHT22;4669;49.594;10.958;2023-10-13T17:10:06;20.90;93.30
9265;DHT22;4669;49.594;10.958;2023-10-13T17:15:10;20.80;93.40
9265;DHT22;4669;49.594;10.958;2023-10-13T17:20:21;20.70;93.80
9265;DHT22;4669;49.594;10.958;2023-10-13T17:25:23;20.50;93.90
9265;DHT22;4669;49.594;10.958;2023-10-13T17:30:26;20.40;94.10
9265;DHT22;4669;49.594;10.958;2023-10-13T17:35:29;20.40;94.10
9265;DHT22;4669;49.594;10.958;2023-10-13T17:40:33;20.30;94.20
9265;DHT22;4669;49.594;10.958;2023-10-13T17:45:35;20.30;94.30
9265;DHT22;4669;49.594;10.958;2023-10-13T17:50:38;20.20;94.20
9265;DHT22;4669;49.594;10.958;2023-10-13T17:55:40;20.20;94.50
9265;DHT22;4669;49.594;10.958;2023-10-13T18:00:42;20.10;94.40
9265;DHT22;4669;49.594;10.958;2023-10-13T18:05:47;20.00;94.50
9265;DHT22;4669;49.594;10.958;2023-10-13T18:10:51;20.00;94.60
9265;DHT22;4669;49.594;10.958;2023-10-13T18:15:53;19.90;94.60
9265;DHT22;4669;49.594;10.958;2023-10-13T18:21:02;19.90;94.50
9265;DHT22;4669;49.594;10.958;2023-10-13T18:26:08;19.80;94.50
9265;DHT22;4669;49.594;10.958;2023-10-13T18:31:12;19.80;94.40
9265;DHT22;4669;49.594;10.958;2023-10-13T18:36:17;19.80;94.50
9265;DHT22;4669;49.594;10.958;2023-10-13T18:41:19;19.70;94.40
9265;DHT22;4669;49.594;10.958;2023-10-13T18:46:22;19.70;94.40
9265;DHT22;4669;49.594;10.958;2023-10-13T18:51:27;19.70;94.40
9265;DHT22;4669;49.594;10.958;2023-10-13T18:56:29;19.60;94.60
9265;DHT22;4669;49.594;10.958;2023-10-13T19:01:33;19.60;94.60
9265;DHT22;4669;49.594;10.958;2023-10-13T19:06:36;19.50;94.70
9265;DHT22;4669;49.594;10.958;2023-10-13T19:11:38;19.40;94.80
9265;DHT22;4669;49.594;10.958;2023-10-13T19:16:41;19.40;94.90
9265;DHT22;4669;49.594;10.958;2023-10-13T19:21:47;19.30;94.70
9265;DHT22;4669;49.594;10.958;2023-10-13T19:26:49;19.30;94.80
9265;DHT22;4669;49.594;10.958;2023-10-13T19:31:53;19.20;94.90
9265;DHT22;4669;49.594;10.958;2023-10-13T19:36:57;19.20;94.80
9265;DHT22;4669;49.594;10.958;2023-10-13T19:42:04;19.20;95.00
9265;DHT22;4669;49.594;10.958;2023-10-13T19:47:07;19.10;95.00
9265;DHT22;4669;49.594;10.958;2023-10-13T19:52:15;19.10;95.10
9265;DHT22;4669;49.594;10.958;2023-10-13T19:57:22;19.00;95.10
9265;DHT22;4669;49.594;10.958;2023-10-13T20:02:24;19.00;95.10
9265;DHT22;4669;49.594;10.958;2023-10-13T20:07:28;18.90;95.20
9265;DHT22;4669;49.594;10.958;2023-10-13T20:12:30;18.90;95.00
9265;DHT22;4669;49.594;10.958;2023-10-13T20:17:32;18.90;95.20
9265;DHT22;4669;49.594;10.958;2023-10-13T20:22:35;18.80;95.40
9265;DHT22;4669;49.594;10.958;2023-10-13T20:27:40;18.80;95.40
9265;DHT22;4669;49.594;10.958;2023-10-13T20:32:43;18.80;95.50
9265;DHT22;4669;49.594;10.958;2023-10-13T20:37:47;18.70;95.60
9265;DHT22;4669;49.594;10.958;2023-10-13T20:42:50;18.60;95.50
9265;DHT22;4669;49.594;10.958;2023-10-13T20:47:53;18.60;95.50
9265;DHT22;4669;49.594;10.958;2023-10-13T20:52:56;18.60;95.50
9265;DHT22;4669;49.594;10.958;2023-10-13T20:57:58;18.60;95.50
9265;DHT22;4669;49.594;10.958;2023-10-13T21:03:00;18.50;95.50
9265;DHT22;4669;49.594;10.958;2023-10-13T21:08:04;18.60;95.50
9265;DHT22;4669;49.594;10.958;2023-10-13T21:13:06;18.60;95.40
9265;DHT22;4669;49.594;10.958;2023-10-13T21:18:09;18.60;95.40
9265;DHT22;4669;49.594;10.958;2023-10-13T21:23:12;18.50;95.30
9265;DHT22;4669;49.594;10.958;2023-10-13T21:28:14;18.50;95.30
9265;DHT22;4669;49.594;10.958;2023-10-13T21:33:16;18.60;95.30
9265;DHT22;4669;49.594;10.958;2023-10-13T21:38:20;18.60;95.30
9265;DHT22;4669;49.594;10.958;2023-10-13T21:43:21;18.50;95.40
9265;DHT22;4669;49.594;10.958;2023-10-13T21:48:25;18.50;95.30
9265;DHT22;4669;49.594;10.958;2023-10-13T21:53:29;18.50;95.30
9265;DHT22;4669;49.594;10.958;2023-10-13T21:58:31;18.50;95.50
